sensor_id;sensor_type;location;lat;lon;timestamp;P1;durP1;ratioP1;P2;durP2;ratioP2
20090;SDS011;10205;49.678;6.560;2022-11-18T00:01:05;5.30;;;2.03;;
20090;SDS011;10205;49.678;6.560;2022-11-18T00:03:36;7.10;;;1.95;;
20090;SDS011;10205;49.678;6.560;2022-11-18T00:06:05;4.43;;;2.00;;
20090;SDS011;10205;49.678;6.560;2022-11-18T00:08:36;4.80;;;2.07;;
20090;SDS011;10205;49.678;6.560;2022-11-18T00:11:04;3.05;;;1.85;;
20090;SDS011;10205;49.678;6.560;2022-11-18T00:13:36;2.63;;;1.97;;
20090;SDS011;10205;49.678;6.560;2022-11-18T00:16:21;4.93;;;2.00;;
20090;SDS011;10205;49.678;6.560;2022-11-18T00:18:50;3.45;;;2.13;;
20090;SDS011;10205;49.678;6.560;2022-11-18T00:21:18;4.25;;;2.47;;
20090;SDS011;10205;49.678;6.560;2022-11-18T00:23:47;3.25;;;2.05;;
20090;SDS011;10205;49.678;6.560;2022-11-18T00:26:14;2.83;;;1.97;;
20090;SDS011;10205;49.678;6.560;2022-11-18T00:28:41;5.78;;;2.05;;
20090;SDS011;10205;49.678;6.560;2022-11-18T00:31:09;4.78;;;1.83;;
20090;SDS011;10205;49.678;6.560;2022-11-18T00:33:39;4.40;;;1.63;;
20090;SDS011;10205;49.678;6.560;2022-11-18T00:36:08;6.00;;;2.20;;
20090;SDS011;10205;49.678;6.560;2022-11-18T00:38:38;2.50;;;1.80;;
20090;SDS011;10205;49.678;6.560;2022-11-18T00:41:08;5.72;;;1.95;;
20090;SDS011;10205;49.678;6.560;2022-11-18T00:43:38;6.70;;;2.53;;
20090;SDS011;10205;49.678;6.560;2022-11-18T00:46:06;2.80;;;1.80;;
20090;SDS011;10205;49.678;6.560;2022-11-18T00:48:36;5.60;;;2.10;;
20090;SDS011;10205;49.678;6.560;2022-11-18T00:51:06;5.20;;;1.90;;
20090;SDS011;10205;49.678;6.560;2022-11-18T00:53:41;5.27;;;1.87;;
20090;SDS011;10205;49.678;6.560;2022-11-18T00:56:09;4.37;;;2.23;;
20090;SDS011;10205;49.678;6.560;2022-11-18T00:58:37;7.97;;;2.40;;
20090;SDS011;10205;49.678;6.560;2022-11-18T01:01:04;4.65;;;1.85;;
20090;SDS011;10205;49.678;6.560;2022-11-18T01:03:34;4.13;;;1.70;;
20090;SDS011;10205;49.678;6.560;2022-11-18T01:06:01;3.30;;;1.93;;
20090;SDS011;10205;49.678;6.560;2022-11-18T01:08:30;3.92;;;1.90;;
20090;SDS011;10205;49.678;6.560;2022-11-18T01:10:58;2.67;;;1.73;;
20090;SDS011;10205;49.678;6.560;2022-11-18T01:13:47;6.90;;;1.90;;
20090;SDS011;10205;49.678;6.560;2022-11-18T01:16:16;6.97;;;2.20;;
20090;SDS011;10205;49.678;6.560;2022-11-18T01:18:46;4.17;;;1.63;;
20090;SDS011;10205;49.678;6.560;2022-11-18T01:21:17;4.97;;;1.57;;
20090;SDS011;10205;49.678;6.560;2022-11-18T01:23:46;7.03;;;1.70;;
20090;SDS011;10205;49.678;6.560;2022-11-18T01:26:15;3.17;;;1.87;;
20090;SDS011;10205;49.678;6.560;2022-11-18T01:28:43;4.00;;;1.63;;
20090;SDS011;10205;49.678;6.560;2022-11-18T01:31:11;2.43;;;1.80;;
20090;SDS011;10205;49.678;6.560;2022-11-18T01:33:42;3.27;;;1.90;;
20090;SDS011;10205;49.678;6.560;2022-11-18T01:36:14;6.43;;;1.73;;
20090;SDS011;10205;49.678;6.560;2022-11-18T01:38:44;9.10;;;2.10;;
20090;SDS011;10205;49.678;6.560;2022-11-18T01:41:14;4.83;;;2.10;;
20090;SDS011;10205;49.678;6.560;2022-11-18T01:43:49;3.77;;;1.77;;
20090;SDS011;10205;49.678;6.560;2022-11-18T01:46:20;3.60;;;1.90;;
20090;SDS011;10205;49.678;6.560;2022-11-18T01:48:51;3.17;;;1.70;;
20090;SDS011;10205;49.678;6.560;2022-11-18T01:51:25;5.47;;;2.10;;
20090;SDS011;10205;49.678;6.560;2022-11-18T01:54:01;4.23;;;1.80;;
20090;SDS011;10205;49.678;6.560;2022-11-18T01:56:35;3.97;;;1.90;;
20090;SDS011;10205;49.678;6.560;2022-11-18T01:59:08;4.60;;;1.95;;
20090;SDS011;10205;49.678;6.560;2022-11-18T02:01:39;4.40;;;1.80;;
20090;SDS011;10205;49.678;6.560;2022-11-18T02:04:07;3.47;;;1.83;;
20090;SDS011;10205;49.678;6.560;2022-11-18T02:06:35;3.70;;;1.70;;
20090;SDS011;10205;49.678;6.560;2022-11-18T02:09:04;3.30;;;1.37;;
20090;SDS011;10205;49.678;6.560;2022-11-18T02:11:32;2.70;;;1.40;;
20090;SDS011;10205;49.678;6.560;2022-11-18T02:14:19;1.95;;;1.00;;
20090;SDS011;10205;49.678;6.560;2022-11-18T02:17:00;1.20;;;1.10;;
20090;SDS011;10205;49.678;6.560;2022-11-18T02:19:47;1.30;;;1.00;;
20090;SDS011;10205;49.678;6.560;2022-11-18T02:22:47;1.07;;;0.80;;
20090;SDS011;10205;49.678;6.560;2022-11-18T02:25:51;2.47;;;1.00;;
20090;SDS011;10205;49.678;6.560;2022-11-18T02:28:47;0.97;;;0.90;;
20090;SDS011;10205;49.678;6.560;2022-11-18T02:31:34;2.03;;;1.00;;
20090;SDS011;10205;49.678;6.560;2022-11-18T02:34:15;1.67;;;0.90;;
20090;SDS011;10205;49.678;6.560;2022-11-18T02:36:57;2.30;;;1.00;;
20090;SDS011;10205;49.678;6.560;2022-11-18T02:39:33;2.17;;;0.90;;
20090;SDS011;10205;49.678;6.560;2022-11-18T02:42:09;1.20;;;0.90;;
20090;SDS011;10205;49.678;6.560;2022-11-18T02:44:44;2.57;;;1.10;;
20090;SDS011;10205;49.678;6.560;2022-11-18T02:47:17;1.03;;;1.00;;
20090;SDS011;10205;49.678;6.560;2022-11-18T02:49:53;2.20;;;1.10;;
20090;SDS011;10205;49.678;6.560;2022-11-18T02:52:26;1.73;;;0.93;;
20090;SDS011;10205;49.678;6.560;2022-11-18T02:54:57;1.40;;;1.10;;
20090;SDS011;10205;49.678;6.560;2022-11-18T02:57:27;1.97;;;1.30;;
20090;SDS011;10205;49.678;6.560;2022-11-18T02:59:57;1.47;;;0.90;;
20090;SDS011;10205;49.678;6.560;2022-11-18T03:02:25;1.53;;;1.10;;
20090;SDS011;10205;49.678;6.560;2022-11-18T03:04:54;2.07;;;1.20;;
20090;SDS011;10205;49.678;6.560;2022-11-18T03:07:24;2.77;;;1.20;;
20090;SDS011;10205;49.678;6.560;2022-11-18T03:09:55;2.27;;;1.20;;
20090;SDS011;10205;49.678;6.560;2022-11-18T03:12:28;3.80;;;1.17;;
20090;SDS011;10205;49.678;6.560;2022-11-18T03:15:08;1.40;;;1.13;;
20090;SDS011;10205;49.678;6.560;2022-11-18T03:17:46;1.33;;;1.00;;
20090;SDS011;10205;49.678;6.560;2022-11-18T03:20:23;3.13;;;1.20;;
20090;SDS011;10205;49.678;6.560;2022-11-18T03:22:59;3.33;;;1.10;;
20090;SDS011;10205;49.678;6.560;2022-11-18T03:25:36;1.50;;;1.07;;
20090;SDS011;10205;49.678;6.560;2022-11-18T03:28:12;3.70;;;1.10;;
20090;SDS011;10205;49.678;6.560;2022-11-18T03:30:49;1.87;;;1.00;;
20090;SDS011;10205;49.678;6.560;2022-11-18T03:33:23;2.60;;;1.00;;
20090;SDS011;10205;49.678;6.560;2022-11-18T03:36:00;4.40;;;1.27;;
20090;SDS011;10205;49.678;6.560;2022-11-18T03:38:33;2.20;;;1.13;;
20090;SDS011;10205;49.678;6.560;2022-11-18T03:41:08;2.25;;;1.00;;
20090;SDS011;10205;49.678;6.560;2022-11-18T03:43:40;2.67;;;1.40;;
20090;SDS011;10205;49.678;6.560;2022-11-18T03:46:19;1.43;;;1.07;;
20090;SDS011;10205;49.678;6.560;2022-11-18T03:48:53;1.50;;;1.00;;
20090;SDS011;10205;49.678;6.560;2022-11-18T03:51:25;1.30;;;1.05;;
20090;SDS011;10205;49.678;6.560;2022-11-18T03:53:59;2.60;;;1.30;;
20090;SDS011;10205;49.678;6.560;2022-11-18T03:56:34;1.40;;;1.00;;
20090;SDS011;10205;49.678;6.560;2022-11-18T03:59:09;2.70;;;1.00;;
20090;SDS011;10205;49.678;6.560;2022-11-18T04:01:46;2.20;;;1.10;;
20090;SDS011;10205;49.678;6.560;2022-11-18T04:04:20;3.78;;;1.10;;
20090;SDS011;10205;49.678;6.560;2022-11-18T04:06:52;2.75;;;1.10;;
20090;SDS011;10205;49.678;6.560;2022-11-18T04:09:29;0.88;;;0.88;;
20090;SDS011;10205;49.678;6.560;2022-11-18T04:12:09;2.40;;;1.10;;
20090;SDS011;10205;49.678;6.560;2022-11-18T04:14:41;1.17;;;0.90;;
20090;SDS011;10205;49.678;6.560;2022-11-18T04:17:14;1.97;;;1.30;;
20090;SDS011;10205;49.678;6.560;2022-11-18T04:19:46;1.47;;;1.10;;
20090;SDS011;10205;49.678;6.560;2022-11-18T04:22:14;1.10;;;1.00;;
20090;SDS011;10205;49.678;6.560;2022-11-18T04:24:42;1.45;;;1.00;;
20090;SDS011;10205;49.678;6.560;2022-11-18T04:27:10;1.00;;;0.90;;
20090;SDS011;10205;49.678;6.560;2022-11-18T04:29:39;3.20;;;1.08;;
20090;SDS011;10205;49.678;6.560;2022-11-18T04:32:06;1.27;;;0.90;;
20090;SDS011;10205;49.678;6.560;2022-11-18T04:34:36;1.27;;;1.00;;
20090;SDS011;10205;49.678;6.560;2022-11-18T04:37:03;1.40;;;1.30;;
20090;SDS011;10205;49.678;6.560;2022-11-18T04:39:30;1.83;;;1.00;;
20090;SDS011;10205;49.678;6.560;2022-11-18T04:41:57;1.63;;;0.93;;
20090;SDS011;10205;49.678;6.560;2022-11-18T04:44:25;2.03;;;0.93;;
20090;SDS011;10205;49.678;6.560;2022-11-18T04:46:54;4.63;;;1.13;;
20090;SDS011;10205;49.678;6.560;2022-11-18T04:49:23;3.63;;;1.05;;
20090;SDS011;10205;49.678;6.560;2022-11-18T04:51:53;1.73;;;1.30;;
20090;SDS011;10205;49.678;6.560;2022-11-18T04:54:22;1.20;;;1.10;;
20090;SDS011;10205;49.678;6.560;2022-11-18T04:56:51;3.20;;;1.13;;
20090;SDS011;10205;49.678;6.560;2022-11-18T04:59:19;1.50;;;1.10;;
20090;SDS011;10205;49.678;6.560;2022-11-18T05:01:50;1.10;;;1.00;;
20090;SDS011;10205;49.678;6.560;2022-11-18T05:04:19;1.20;;;1.10;;
20090;SDS011;10205;49.678;6.560;2022-11-18T05:06:49;1.00;;;0.90;;
20090;SDS011;10205;49.678;6.560;2022-11-18T05:09:19;1.02;;;0.90;;
20090;SDS011;10205;49.678;6.560;2022-11-18T05:11:47;1.17;;;1.00;;
20090;SDS011;10205;49.678;6.560;2022-11-18T05:14:33;0.90;;;0.90;;
20090;SDS011;10205;49.678;6.560;2022-11-18T05:17:05;2.95;;;1.13;;
20090;SDS011;10205;49.678;6.560;2022-11-18T05:19:35;2.28;;;1.20;;
20090;SDS011;10205;49.678;6.560;2022-11-18T05:22:03;2.23;;;1.00;;
20090;SDS011;10205;49.678;6.560;2022-11-18T05:24:31;1.27;;;1.03;;
20090;SDS011;10205;49.678;6.560;2022-11-18T05:26:59;0.90;;;0.90;;
20090;SDS011;10205;49.678;6.560;2022-11-18T05:29:27;0.90;;;0.90;;
20090;SDS011;10205;49.678;6.560;2022-11-18T05:31:54;2.00;;;1.10;;
20090;SDS011;10205;49.678;6.560;2022-11-18T05:34:21;1.73;;;1.20;;
20090;SDS011;10205;49.678;6.560;2022-11-18T05:36:49;3.40;;;1.23;;
20090;SDS011;10205;49.678;6.560;2022-11-18T05:39:16;3.07;;;1.20;;
20090;SDS011;10205;49.678;6.560;2022-11-18T05:41:46;2.87;;;1.30;;
20090;SDS011;10205;49.678;6.560;2022-11-18T05:44:30;1.80;;;1.20;;
20090;SDS011;10205;49.678;6.560;2022-11-18T05:46:58;1.63;;;0.93;;
20090;SDS011;10205;49.678;6.560;2022-11-18T05:49:26;1.27;;;1.03;;
20090;SDS011;10205;49.678;6.560;2022-11-18T05:51:55;3.33;;;1.40;;
20090;SDS011;10205;49.678;6.560;2022-11-18T05:54:22;1.87;;;1.60;;
20090;SDS011;10205;49.678;6.560;2022-11-18T05:56:52;1.30;;;1.20;;
20090;SDS011;10205;49.678;6.560;2022-11-18T05:59:19;2.23;;;1.20;;
20090;SDS011;10205;49.678;6.560;2022-11-18T06:01:48;1.87;;;1.40;;
20090;SDS011;10205;49.678;6.560;2022-11-18T06:04:21;1.00;;;0.90;;
20090;SDS011;10205;49.678;6.560;2022-11-18T06:06:56;1.63;;;1.17;;
20090;SDS011;10205;49.678;6.560;2022-11-18T06:09:30;1.20;;;1.10;;
20090;SDS011;10205;49.678;6.560;2022-11-18T06:12:06;1.73;;;1.20;;
20090;SDS011;10205;49.678;6.560;2022-11-18T06:14:39;2.53;;;1.30;;
20090;SDS011;10205;49.678;6.560;2022-11-18T06:17:14;1.70;;;1.20;;
20090;SDS011;10205;49.678;6.560;2022-11-18T06:19:47;1.38;;;1.00;;
20090;SDS011;10205;49.678;6.560;2022-11-18T06:22:15;1.23;;;1.00;;
20090;SDS011;10205;49.678;6.560;2022-11-18T06:24:42;2.77;;;1.50;;
20090;SDS011;10205;49.678;6.560;2022-11-18T06:27:12;1.23;;;1.10;;
20090;SDS011;10205;49.678;6.560;2022-11-18T06:29:40;2.90;;;1.20;;
20090;SDS011;10205;49.678;6.560;2022-11-18T06:32:08;2.13;;;1.30;;
20090;SDS011;10205;49.678;6.560;2022-11-18T06:34:35;1.87;;;1.27;;
20090;SDS011;10205;49.678;6.560;2022-11-18T06:37:10;1.43;;;1.30;;
20090;SDS011;10205;49.678;6.560;2022-11-18T06:39:44;1.63;;;1.30;;
20090;SDS011;10205;49.678;6.560;2022-11-18T06:42:13;3.73;;;1.27;;
20090;SDS011;10205;49.678;6.560;2022-11-18T06:45:02;1.93;;;1.40;;
20090;SDS011;10205;49.678;6.560;2022-11-18T06:47:29;2.03;;;1.20;;
20090;SDS011;10205;49.678;6.560;2022-11-18T06:49:57;2.27;;;1.30;;
20090;SDS011;10205;49.678;6.560;2022-11-18T06:52:24;5.33;;;1.37;;
20090;SDS011;10205;49.678;6.560;2022-11-18T06:54:51;4.53;;;1.53;;
20090;SDS011;10205;49.678;6.560;2022-11-18T06:57:20;2.03;;;1.42;;
20090;SDS011;10205;49.678;6.560;2022-11-18T06:59:47;4.80;;;1.50;;
20090;SDS011;10205;49.678;6.560;2022-11-18T07:02:15;1.70;;;1.50;;
20090;SDS011;10205;49.678;6.560;2022-11-18T07:04:43;3.08;;;1.67;;
20090;SDS011;10205;49.678;6.560;2022-11-18T07:07:10;4.97;;;1.50;;
20090;SDS011;10205;49.678;6.560;2022-11-18T07:09:38;2.77;;;1.60;;
20090;SDS011;10205;49.678;6.560;2022-11-18T07:12:05;2.55;;;1.50;;
20090;SDS011;10205;49.678;6.560;2022-11-18T07:14:34;2.10;;;1.50;;
20090;SDS011;10205;49.678;6.560;2022-11-18T07:17:01;3.65;;;1.48;;
20090;SDS011;10205;49.678;6.560;2022-11-18T07:19:29;1.50;;;1.40;;
20090;SDS011;10205;49.678;6.560;2022-11-18T07:21:56;1.67;;;1.40;;
20090;SDS011;10205;49.678;6.560;2022-11-18T07:24:25;1.20;;;1.00;;
20090;SDS011;10205;49.678;6.560;2022-11-18T07:26:52;4.00;;;1.47;;
20090;SDS011;10205;49.678;6.560;2022-11-18T07:29:22;4.03;;;1.90;;
20090;SDS011;10205;49.678;6.560;2022-11-18T07:31:50;1.73;;;1.37;;
20090;SDS011;10205;49.678;6.560;2022-11-18T07:34:17;2.40;;;1.70;;
20090;SDS011;10205;49.678;6.560;2022-11-18T07:36:45;2.10;;;1.80;;
20090;SDS011;10205;49.678;6.560;2022-11-18T07:39:12;2.40;;;1.63;;
20090;SDS011;10205;49.678;6.560;2022-11-18T07:41:39;2.73;;;1.97;;
20090;SDS011;10205;49.678;6.560;2022-11-18T07:44:10;3.07;;;1.80;;
20090;SDS011;10205;49.678;6.560;2022-11-18T07:46:37;2.83;;;1.70;;
20090;SDS011;10205;49.678;6.560;2022-11-18T07:49:11;5.33;;;2.00;;
20090;SDS011;10205;49.678;6.560;2022-11-18T07:51:39;3.97;;;1.97;;
20090;SDS011;10205;49.678;6.560;2022-11-18T07:54:06;3.20;;;2.30;;
20090;SDS011;10205;49.678;6.560;2022-11-18T07:56:35;1.83;;;1.57;;
20090;SDS011;10205;49.678;6.560;2022-11-18T07:59:05;4.53;;;1.85;;
20090;SDS011;10205;49.678;6.560;2022-11-18T08:01:34;3.67;;;2.07;;
20090;SDS011;10205;49.678;6.560;2022-11-18T08:04:05;3.13;;;1.90;;
20090;SDS011;10205;49.678;6.560;2022-11-18T08:06:36;4.03;;;2.20;;
20090;SDS011;10205;49.678;6.560;2022-11-18T08:09:06;2.83;;;2.23;;
20090;SDS011;10205;49.678;6.560;2022-11-18T08:11:34;3.57;;;1.77;;
20090;SDS011;10205;49.678;6.560;2022-11-18T08:14:02;2.72;;;2.05;;
20090;SDS011;10205;49.678;6.560;2022-11-18T08:16:30;5.20;;;2.30;;
20090;SDS011;10205;49.678;6.560;2022-11-18T08:18:57;4.60;;;2.20;;
20090;SDS011;10205;49.678;6.560;2022-11-18T08:21:27;6.18;;;2.40;;
20090;SDS011;10205;49.678;6.560;2022-11-18T08:23:55;4.23;;;2.00;;
20090;SDS011;10205;49.678;6.560;2022-11-18T08:26:23;4.00;;;2.47;;
20090;SDS011;10205;49.678;6.560;2022-11-18T08:28:52;2.63;;;1.97;;
20090;SDS011;10205;49.678;6.560;2022-11-18T08:31:21;4.47;;;2.33;;
20090;SDS011;10205;49.678;6.560;2022-11-18T08:33:53;4.87;;;2.00;;
20090;SDS011;10205;49.678;6.560;2022-11-18T08:36:21;1.88;;;1.70;;
20090;SDS011;10205;49.678;6.560;2022-11-18T08:38:53;2.00;;;1.80;;
20090;SDS011;10205;49.678;6.560;2022-11-18T08:41:24;4.47;;;2.30;;
20090;SDS011;10205;49.678;6.560;2022-11-18T08:43:56;3.87;;;1.90;;
20090;SDS011;10205;49.678;6.560;2022-11-18T08:46:23;2.93;;;2.23;;
20090;SDS011;10205;49.678;6.560;2022-11-18T08:48:50;4.57;;;2.00;;
20090;SDS011;10205;49.678;6.560;2022-11-18T08:51:18;4.83;;;2.20;;
20090;SDS011;10205;49.678;6.560;2022-11-18T08:53:45;3.33;;;1.73;;
20090;SDS011;10205;49.678;6.560;2022-11-18T08:56:14;4.05;;;1.70;;
20090;SDS011;10205;49.678;6.560;2022-11-18T08:58:44;2.73;;;1.93;;
20090;SDS011;10205;49.678;6.560;2022-11-18T09:01:12;3.58;;;2.10;;
20090;SDS011;10205;49.678;6.560;2022-11-18T09:03:39;2.08;;;1.83;;
20090;SDS011;10205;49.678;6.560;2022-11-18T09:06:08;2.90;;;1.90;;
20090;SDS011;10205;49.678;6.560;2022-11-18T09:08:38;2.70;;;1.80;;
20090;SDS011;10205;49.678;6.560;2022-11-18T09:11:05;1.63;;;1.52;;
20090;SDS011;10205;49.678;6.560;2022-11-18T09:13:36;2.13;;;1.80;;
20090;SDS011;10205;49.678;6.560;2022-11-18T09:16:05;4.03;;;1.90;;
20090;SDS011;10205;49.678;6.560;2022-11-18T09:18:34;3.25;;;1.52;;
20090;SDS011;10205;49.678;6.560;2022-11-18T09:21:03;3.13;;;1.77;;
20090;SDS011;10205;49.678;6.560;2022-11-18T09:23:34;4.23;;;2.20;;
20090;SDS011;10205;49.678;6.560;2022-11-18T09:26:04;1.67;;;1.57;;
20090;SDS011;10205;49.678;6.560;2022-11-18T09:28:35;2.97;;;1.77;;
20090;SDS011;10205;49.678;6.560;2022-11-18T09:31:04;2.78;;;1.65;;
20090;SDS011;10205;49.678;6.560;2022-11-18T09:33:32;4.70;;;1.70;;
20090;SDS011;10205;49.678;6.560;2022-11-18T09:36:00;4.60;;;1.67;;
20090;SDS011;10205;49.678;6.560;2022-11-18T09:38:28;2.38;;;1.70;;
20090;SDS011;10205;49.678;6.560;2022-11-18T09:41:01;4.38;;;1.60;;
20090;SDS011;10205;49.678;6.560;2022-11-18T09:43:37;2.35;;;1.50;;
20090;SDS011;10205;49.678;6.560;2022-11-18T09:46:25;2.75;;;1.73;;
20090;SDS011;10205;49.678;6.560;2022-11-18T09:49:01;3.97;;;1.70;;
20090;SDS011;10205;49.678;6.560;2022-11-18T09:51:41;4.10;;;1.93;;
20090;SDS011;10205;49.678;6.560;2022-11-18T09:54:14;3.75;;;1.52;;
20090;SDS011;10205;49.678;6.560;2022-11-18T09:56:47;4.27;;;1.80;;
20090;SDS011;10205;49.678;6.560;2022-11-18T09:59:19;1.98;;;1.50;;
20090;SDS011;10205;49.678;6.560;2022-11-18T10:01:49;4.20;;;1.58;;
20090;SDS011;10205;49.678;6.560;2022-11-18T10:04:20;2.60;;;1.57;;
20090;SDS011;10205;49.678;6.560;2022-11-18T10:06:48;2.28;;;1.70;;
20090;SDS011;10205;49.678;6.560;2022-11-18T10:09:19;3.20;;;1.52;;
20090;SDS011;10205;49.678;6.560;2022-11-18T10:12:11;4.07;;;2.00;;
20090;SDS011;10205;49.678;6.560;2022-11-18T10:14:56;2.33;;;1.50;;
20090;SDS011;10205;49.678;6.560;2022-11-18T10:17:43;3.75;;;1.60;;
20090;SDS011;10205;49.678;6.560;2022-11-18T10:20:26;3.75;;;1.60;;
20090;SDS011;10205;49.678;6.560;2022-11-18T10:23:12;1.50;;;1.40;;
20090;SDS011;10205;49.678;6.560;2022-11-18T10:25:47;1.87;;;1.67;;
20090;SDS011;10205;49.678;6.560;2022-11-18T10:28:15;4.20;;;1.42;;
20090;SDS011;10205;49.678;6.560;2022-11-18T10:30:49;8.55;;;2.65;;
20090;SDS011;10205;49.678;6.560;2022-11-18T10:33:22;5.28;;;2.03;;
20090;SDS011;10205;49.678;6.560;2022-11-18T10:36:07;3.85;;;1.65;;
20090;SDS011;10205;49.678;6.560;2022-11-18T10:39:04;2.85;;;1.50;;
20090;SDS011;10205;49.678;6.560;2022-11-18T10:41:38;1.90;;;1.43;;
20090;SDS011;10205;49.678;6.560;2022-11-18T10:47:18;3.90;;;1.45;;
20090;SDS011;10205;49.678;6.560;2022-11-18T10:49:53;3.10;;;1.30;;
20090;SDS011;10205;49.678;6.560;2022-11-18T10:52:24;3.80;;;1.47;;
20090;SDS011;10205;49.678;6.560;2022-11-18T10:57:49;2.30;;;1.40;;
20090;SDS011;10205;49.678;6.560;2022-11-18T11:00:38;3.17;;;1.57;;
20090;SDS011;10205;49.678;6.560;2022-11-18T11:03:30;2.93;;;1.70;;
20090;SDS011;10205;49.678;6.560;2022-11-18T11:09:09;2.35;;;1.83;;
20090;SDS011;10205;49.678;6.560;2022-11-18T11:11:55;3.92;;;1.58;;
20090;SDS011;10205;49.678;6.560;2022-11-18T11:14:28;3.57;;;1.53;;
20090;SDS011;10205;49.678;6.560;2022-11-18T11:17:03;3.85;;;1.40;;
20090;SDS011;10205;49.678;6.560;2022-11-18T11:19:42;3.45;;;1.48;;
20090;SDS011;10205;49.678;6.560;2022-11-18T11:22:17;4.10;;;1.35;;
20090;SDS011;10205;49.678;6.560;2022-11-18T11:24:45;5.07;;;1.70;;
20090;SDS011;10205;49.678;6.560;2022-11-18T11:27:20;4.30;;;1.25;;
20090;SDS011;10205;49.678;6.560;2022-11-18T11:30:07;2.47;;;1.13;;
20090;SDS011;10205;49.678;6.560;2022-11-18T11:32:50;3.13;;;1.25;;
20090;SDS011;10205;49.678;6.560;2022-11-18T11:35:44;1.75;;;1.20;;
20090;SDS011;10205;49.678;6.560;2022-11-18T11:38:24;2.50;;;1.10;;
20090;SDS011;10205;49.678;6.560;2022-11-18T11:41:09;2.67;;;1.63;;
20090;SDS011;10205;49.678;6.560;2022-11-18T11:43:52;3.85;;;1.08;;
20090;SDS011;10205;49.678;6.560;2022-11-18T11:46:44;2.00;;;1.00;;
20090;SDS011;10205;49.678;6.560;2022-11-18T11:49:43;2.25;;;1.23;;
20090;SDS011;10205;49.678;6.560;2022-11-18T11:52:24;2.13;;;1.30;;
20090;SDS011;10205;49.678;6.560;2022-11-18T11:55:15;3.90;;;1.33;;
20090;SDS011;10205;49.678;6.560;2022-11-18T11:57:56;1.52;;;1.27;;
20090;SDS011;10205;49.678;6.560;2022-11-18T12:00:39;3.10;;;1.20;;
20090;SDS011;10205;49.678;6.560;2022-11-18T12:03:23;3.42;;;1.42;;
20090;SDS011;10205;49.678;6.560;2022-11-18T12:06:10;1.48;;;1.35;;
20090;SDS011;10205;49.678;6.560;2022-11-18T12:08:46;2.30;;;1.30;;
20090;SDS011;10205;49.678;6.560;2022-11-18T12:11:26;1.90;;;1.10;;
20090;SDS011;10205;49.678;6.560;2022-11-18T12:14:08;2.05;;;1.20;;
20090;SDS011;10205;49.678;6.560;2022-11-18T12:16:45;1.90;;;1.10;;
20090;SDS011;10205;49.678;6.560;2022-11-18T12:19:20;1.52;;;1.23;;
20090;SDS011;10205;49.678;6.560;2022-11-18T12:21:56;3.83;;;1.33;;
20090;SDS011;10205;49.678;6.560;2022-11-18T12:24:31;1.70;;;1.10;;
20090;SDS011;10205;49.678;6.560;2022-11-18T12:27:02;2.00;;;1.20;;
20090;SDS011;10205;49.678;6.560;2022-11-18T12:29:52;2.28;;;1.08;;
20090;SDS011;10205;49.678;6.560;2022-11-18T12:32:24;1.60;;;1.10;;
20090;SDS011;10205;49.678;6.560;2022-11-18T12:35:20;3.22;;;1.15;;
20090;SDS011;10205;49.678;6.560;2022-11-18T12:38:01;2.97;;;1.30;;
20090;SDS011;10205;49.678;6.560;2022-11-18T12:40:32;3.42;;;1.50;;
20090;SDS011;10205;49.678;6.560;2022-11-18T12:46:49;3.20;;;1.23;;
20090;SDS011;10205;49.678;6.560;2022-11-18T12:52:44;2.78;;;1.00;;
20090;SDS011;10205;49.678;6.560;2022-11-18T12:55:19;2.05;;;1.20;;
20090;SDS011;10205;49.678;6.560;2022-11-18T12:57:53;2.90;;;1.10;;
20090;SDS011;10205;49.678;6.560;2022-11-18T13:00:29;2.77;;;1.17;;
20090;SDS011;10205;49.678;6.560;2022-11-18T13:03:20;4.30;;;1.33;;
20090;SDS011;10205;49.678;6.560;2022-11-18T13:05:50;2.40;;;1.13;;
20090;SDS011;10205;49.678;6.560;2022-11-18T13:08:27;2.58;;;1.42;;
20090;SDS011;10205;49.678;6.560;2022-11-18T13:10:56;1.85;;;1.10;;
20090;SDS011;10205;49.678;6.560;2022-11-18T13:13:53;1.98;;;1.42;;
20090;SDS011;10205;49.678;6.560;2022-11-18T13:16:35;2.17;;;1.00;;
20090;SDS011;10205;49.678;6.560;2022-11-18T13:19:22;4.10;;;1.30;;
20090;SDS011;10205;49.678;6.560;2022-11-18T13:21:54;3.38;;;1.17;;
20090;SDS011;10205;49.678;6.560;2022-11-18T13:24:44;3.00;;;1.35;;
20090;SDS011;10205;49.678;6.560;2022-11-18T13:27:21;5.40;;;1.13;;
20090;SDS011;10205;49.678;6.560;2022-11-18T13:30:03;1.63;;;1.10;;
20090;SDS011;10205;49.678;6.560;2022-11-18T13:32:35;4.90;;;1.25;;
20090;SDS011;10205;49.678;6.560;2022-11-18T13:35:10;2.17;;;1.00;;
20090;SDS011;10205;49.678;6.560;2022-11-18T13:37:47;1.33;;;1.10;;
20090;SDS011;10205;49.678;6.560;2022-11-18T13:40:18;4.93;;;1.33;;
20090;SDS011;10205;49.678;6.560;2022-11-18T13:42:49;2.95;;;1.20;;
20090;SDS011;10205;49.678;6.560;2022-11-18T13:45:22;1.63;;;1.05;;
20090;SDS011;10205;49.678;6.560;2022-11-18T13:47:54;2.25;;;1.15;;
20090;SDS011;10205;49.678;6.560;2022-11-18T13:50:29;1.85;;;1.42;;
20090;SDS011;10205;49.678;6.560;2022-11-18T13:53:03;2.00;;;1.30;;
20090;SDS011;10205;49.678;6.560;2022-11-18T13:55:46;2.38;;;1.10;;
20090;SDS011;10205;49.678;6.560;2022-11-18T13:58:24;2.47;;;1.30;;
20090;SDS011;10205;49.678;6.560;2022-11-18T14:01:00;3.00;;;0.98;;
20090;SDS011;10205;49.678;6.560;2022-11-18T14:03:31;2.00;;;1.08;;
20090;SDS011;10205;49.678;6.560;2022-11-18T14:06:06;2.13;;;0.93;;
20090;SDS011;10205;49.678;6.560;2022-11-18T14:08:35;2.17;;;1.10;;
20090;SDS011;10205;49.678;6.560;2022-11-18T14:11:05;1.88;;;1.13;;
20090;SDS011;10205;49.678;6.560;2022-11-18T14:13:33;2.22;;;1.30;;
20090;SDS011;10205;49.678;6.560;2022-11-18T14:16:29;1.25;;;1.00;;
20090;SDS011;10205;49.678;6.560;2022-11-18T14:18:59;2.50;;;1.50;;
20090;SDS011;10205;49.678;6.560;2022-11-18T14:21:27;2.30;;;1.30;;
20090;SDS011;10205;49.678;6.560;2022-11-18T14:23:57;2.88;;;1.30;;
20090;SDS011;10205;49.678;6.560;2022-11-18T14:26:28;2.17;;;1.40;;
20090;SDS011;10205;49.678;6.560;2022-11-18T14:28:59;2.37;;;1.40;;
20090;SDS011;10205;49.678;6.560;2022-11-18T14:31:42;1.92;;;1.10;;
20090;SDS011;10205;49.678;6.560;2022-11-18T14:34:15;2.10;;;1.38;;
20090;SDS011;10205;49.678;6.560;2022-11-18T14:36:47;2.15;;;1.13;;
20090;SDS011;10205;49.678;6.560;2022-11-18T14:39:18;1.95;;;1.40;;
20090;SDS011;10205;49.678;6.560;2022-11-18T14:41:50;1.98;;;1.10;;
20090;SDS011;10205;49.678;6.560;2022-11-18T14:44:18;4.15;;;1.25;;
20090;SDS011;10205;49.678;6.560;2022-11-18T14:46:51;3.63;;;1.20;;
20090;SDS011;10205;49.678;6.560;2022-11-18T14:49:23;2.30;;;1.20;;
20090;SDS011;10205;49.678;6.560;2022-11-18T14:51:54;2.22;;;1.48;;
20090;SDS011;10205;49.678;6.560;2022-11-18T14:54:23;3.17;;;1.10;;
20090;SDS011;10205;49.678;6.560;2022-11-18T14:56:52;2.60;;;1.25;;
20090;SDS011;10205;49.678;6.560;2022-11-18T14:59:23;2.63;;;1.42;;
20090;SDS011;10205;49.678;6.560;2022-11-18T15:01:52;1.98;;;1.30;;
20090;SDS011;10205;49.678;6.560;2022-11-18T15:04:20;2.45;;;1.23;;
20090;SDS011;10205;49.678;6.560;2022-11-18T15:06:48;2.40;;;1.30;;
20090;SDS011;10205;49.678;6.560;2022-11-18T15:09:15;2.33;;;1.60;;
20090;SDS011;10205;49.678;6.560;2022-11-18T15:11:43;1.55;;;1.33;;
20090;SDS011;10205;49.678;6.560;2022-11-18T15:14:10;3.27;;;1.53;;
20090;SDS011;10205;49.678;6.560;2022-11-18T15:16:37;1.80;;;1.38;;
20090;SDS011;10205;49.678;6.560;2022-11-18T15:19:11;1.92;;;1.40;;
20090;SDS011;10205;49.678;6.560;2022-11-18T15:21:40;3.90;;;1.75;;
20090;SDS011;10205;49.678;6.560;2022-11-18T15:24:09;2.13;;;1.40;;
20090;SDS011;10205;49.678;6.560;2022-11-18T15:26:37;2.90;;;1.70;;
20090;SDS011;10205;49.678;6.560;2022-11-18T15:29:10;1.58;;;1.30;;
20090;SDS011;10205;49.678;6.560;2022-11-18T15:31:43;2.15;;;1.50;;
20090;SDS011;10205;49.678;6.560;2022-11-18T15:34:11;2.22;;;1.45;;
20090;SDS011;10205;49.678;6.560;2022-11-18T15:36:39;3.38;;;1.30;;
20090;SDS011;10205;49.678;6.560;2022-11-18T15:39:08;2.17;;;1.50;;